Time;durP1;ratioP1;P1;durP2;ratioP2;P2;SDS_P1;SDS_P2;PMS_P1;PMS_P2;Temp;Humidity;BMP_temperature;BMP_pressure;BME280_temperature;BME280_humidity;BME280_pressure;Samples;Min_cycle;Max_cycle;Signal;HPM_P1;HPM_P2
2023/02/01 00:02:03;;;;;;;;;;;;;;;4.06;100.00;67222.69;5016623;28;20005;-82
2023/02/01 00:04:28;;;;;;;;;;;;;;;4.09;100.00;67224.94;5030744;28;19928;-81
2023/02/01 00:06:54;;;;;;;;;;;;;;;4.12;100.00;67236.78;5021076;28;20428;-82
2023/02/01 00:09:19;;;;;;;;;;;;;;;4.13;100.00;67234.72;5024618;28;20305;-82
2023/02/01 00:11:44;;;;;;;;;;;;;;;;;;5029674;28;19932;-82
2023/02/01 00:14:09;;;;;;;;;;;;;;;4.17;100.00;67234.53;5027339;28;19925;-82
2023/02/01 00:16:35;;;;;;;;;;;;;;;4.17;100.00;67241.84;5029597;28;19928;-81
2023/02/01 00:19:11;;;;;;;;;;;;;;;4.15;100.00;67242.81;5030157;28;19917;-82
2023/02/01 00:21:36;;;;;;;;;;;;;;;4.15;100.00;67232.28;5029442;28;19917;-85
2023/02/01 00:24:02;;;;;;;;;;;;;;;4.12;100.00;67236.78;5030735;28;19924;-81
2023/02/01 00:26:27;;;;;;;;;;;;;;;;;;5029697;28;19917;-82
2023/02/01 00:28:52;;;;;;;;;;;;;;;;;;5029550;28;19921;-81
2023/02/01 00:31:17;;;;;;;;;;;;;;;;;;5030099;28;19929;-82
2023/02/01 00:33:42;;;;;;;;;;;;;;;;;;5027479;28;19928;-83
2023/02/01 00:36:09;;;;;;;;;;;;;;;4.12;100.00;67233.59;5025627;28;19929;-81
2023/02/01 00:38:36;;;;;;;;;;;;;;;4.12;100.00;67228.88;5029494;28;19921;-81
2023/02/01 00:41:01;;;;;;;;;;;;;;;;;;5028333;28;19988;-81
2023/02/01 00:43:26;;;;;;;;;;;;;;;4.17;100.00;67242.44;5030305;28;19925;-81
2023/02/01 00:45:51;;;;;;;;;;;;;;;4.17;100.00;67239.81;5028383;28;20383;-81
2023/02/01 00:48:16;;;;;;;;;;;;;;;;;;5024349;28;19964;-84
2023/02/01 00:50:42;;;;;;;;;;;;;;;;;;5024919;28;19928;-81
2023/02/01 00:53:07;;;;;;;;;;;;;;;;;;5022311;28;19933;-82
2023/02/01 00:55:32;;;;;;;;;;;;;;;4.22;100.00;67245.44;5021532;28;20448;-82
2023/02/01 00:57:57;;;;;;;;;;;;;;;4.23;100.00;67241.31;5028915;28;19938;-84
2023/02/01 01:00:22;;;;;;;;;;;;;;;;;;5030198;28;20341;-81
2023/02/01 01:02:48;;;;;;;;;;;;;;;4.23;100.00;67249.19;5025110;28;19925;-82
2023/02/01 01:05:13;;;;;;;;;;;;;;;4.21;100.00;67238.47;5024452;28;19917;-85
2023/02/01 01:07:38;;;;;;;;;;;;;;;4.19;100.00;67236.78;5023687;28;19924;-82
2023/02/01 01:10:04;;;;;;;;;;;;;;;4.19;100.00;67241.47;5018011;28;19917;-82
2023/02/01 01:12:29;;;;;;;;;;;;;;;4.19;100.00;67241.47;5027909;28;19922;-81
2023/02/01 01:14:55;;;;;;;;;;;;;;;4.20;100.00;67243.19;5029089;28;19921;-82
2023/02/01 01:17:20;;;;;;;;;;;;;;;;;;5027616;28;20008;-83
2023/02/01 01:19:45;;;;;;;;;;;;;;;;;;5028702;28;19947;-81
2023/02/01 01:22:10;;;;;;;;;;;;;;;4.18;100.00;67235.66;5027796;28;19967;-84
2023/02/01 01:24:35;;;;;;;;;;;;;;;;;;5029564;28;20033;-82
2023/02/01 01:27:00;;;;;;;;;;;;;;;4.20;100.00;67243.19;5029256;28;19952;-84
2023/02/01 01:29:26;;;;;;;;;;;;;;;4.19;100.00;67241.47;5030218;28;19917;-82
2023/02/01 01:31:51;;;;;;;;;;;;;;;4.20;100.00;67243.19;5009797;28;19929;-81
2023/02/01 01:34:16;;;;;;;;;;;;;;;4.18;100.00;67240.91;5009985;28;19940;-81
2023/02/01 01:36:41;;;;;;;;;;;;;;;;;;5013201;28;19925;-80
2023/02/01 01:39:07;;;;;;;;;;;;;;;4.22;100.00;67245.44;5029829;28;19917;-83
2023/02/01 01:41:33;;;;;;;;;;;;;;;4.20;100.00;67242.59;5029076;28;19921;-81
2023/02/01 01:43:59;;;;;;;;;;;;;;;4.20;100.00;67242.59;5026072;28;19925;-82
2023/02/01 01:46:32;;;;;;;;;;;;;;;4.21;100.00;67239.03;5025109;28;20447;-81
2023/02/01 01:49:03;;;;;;;;;;;;;;;4.20;100.00;67242.59;5025144;28;19921;-83
2023/02/01 01:51:28;;;;;;;;;;;;;;;;;;5023063;28;19921;-81
2023/02/01 01:53:58;;;;;;;;;;;;;;;4.19;100.00;67242.03;5026953;28;19940;-82
2023/02/01 01:56:24;;;;;;;;;;;;;;;4.20;100.00;67243.19;5027724;28;19922;-82
2023/02/01 01:58:49;;;;;;;;;;;;;;;4.21;100.00;67244.31;5030140;28;19932;-81
2023/02/01 02:01:15;;;;;;;;;;;;;;;4.23;100.00;67246.56;5029114;28;20031;-84
2023/02/01 02:03:44;;;;;;;;;;;;;;;4.24;100.00;67241.84;5032901;28;19921;-84
2023/02/01 02:06:20;;;;;;;;;;;;;;;4.25;100.00;67250.88;5031383;28;19929;-80
2023/02/01 02:08:45;;;;;;;;;;;;;;;;;;5026840;28;19921;-83
2023/02/01 02:11:15;;;;;;;;;;;;;;;4.26;100.00;67249.94;5030007;28;19932;-81
2023/02/01 02:13:42;;;;;;;;;;;;;;;4.28;100.00;67246.94;5029825;28;19972;-85
2023/02/01 02:16:13;;;;;;;;;;;;;;;4.27;100.00;67256.34;5032112;28;19921;-81
2023/02/01 02:18:38;;;;;;;;;;;;;;;;;;5028318;28;19923;-82
2023/02/01 02:21:22;;;;;;;;;;;;;;;4.27;100.00;67256.34;5030738;28;19925;-81
2023/02/01 02:24:20;;;;;;;;;;;;;;;4.29;100.00;67252.78;5031328;28;19953;-82
2023/02/01 02:26:51;;;;;;;;;;;;;;;4.28;100.00;67252.19;5006161;28;20035;-82
2023/02/01 02:29:16;;;;;;;;;;;;;;;;;;5023048;28;19917;-83
2023/02/01 02:31:50;;;;;;;;;;;;;;;4.27;100.00;67250.50;5029965;28;19936;-83
2023/02/01 02:34:27;;;;;;;;;;;;;;;4.27;100.00;67243.16;5030522;28;19957;-85
2023/02/01 02:36:52;;;;;;;;;;;;;;;4.27;100.00;67245.81;5030480;28;19979;-81
2023/02/01 02:39:35;;;;;;;;;;;;;;;4.29;100.00;67248.06;5031292;28;19925;-85
2023/02/01 02:47:40;;;;;;;;;;;;;;;;;;5028890;28;19924;-81
2023/02/01 02:55:40;;;;;;;;;;;;;;;;;;5027061;28;19960;-82
2023/02/01 03:06:21;;;;;;;;;;;;;;;;;;5037097;28;19994;-83
2023/02/01 03:08:47;;;;;;;;;;;;;;;;;;5036930;28;19921;-83
2023/02/01 03:11:14;;;;;;;;;;;;;;;4.37;100.00;67255.97;5044252;28;19928;-84
2023/02/01 03:13:39;;;;;;;;;;;;;;;;;;5056665;28;20478;-83
2023/02/01 03:16:04;;;;;;;;;;;;;;;;;;5056495;28;19924;-82
2023/02/01 03:18:48;;;;;;;;;;;;;;;4.36;100.00;67254.84;5057846;28;19959;-82
2023/02/01 03:21:18;;;;;;;;;;;;;;;4.36;100.00;67260.09;5051360;28;19921;-83
2023/02/01 03:23:44;;;;;;;;;;;;;;;4.35;100.00;67259.00;5054731;28;19925;-83
2023/02/01 03:26:14;;;;;;;;;;;;;;;4.34;100.00;67257.84;5039158;28;19993;-83
2023/02/01 03:28:42;;;;;;;;;;;;;;;4.36;100.00;67254.84;5038555;28;19932;-83
2023/02/01 03:31:07;;;;;;;;;;;;;;;4.32;100.00;67256.16;5056732;28;19925;-82
2023/02/01 03:33:33;;;;;;;;;;;;;;;4.34;100.00;67257.84;5043285;28;19932;-83
2023/02/01 03:35:58;;;;;;;;;;;;;;;;;;5033635;28;19920;-82
2023/02/01 03:38:42;;;;;;;;;;;;;;;4.34;100.00;67261.03;5042166;28;19923;-83
2023/02/01 03:41:26;;;;;;;;;;;;;;;4.35;100.00;67259.53;5054536;28;19984;-83
2023/02/01 03:43:54;;;;;;;;;;;;;;;4.37;100.00;67255.97;5055440;28;19969;-84
2023/02/01 03:46:27;;;;;;;;;;;;;;;4.38;100.00;67262.38;5053418;28;19943;-83
2023/02/01 03:48:53;;;;;;;;;;;;;;;;;;5048178;28;19921;-83
2023/02/01 03:51:20;;;;;;;;;;;;;;;4.39;100.00;67264.06;5057354;28;19931;-84
2023/02/01 03:53:47;;;;;;;;;;;;;;;4.41;100.00;67265.75;5057180;28;19924;-83
2023/02/01 03:56:13;;;;;;;;;;;;;;;4.42;100.00;67261.59;5057091;28;19932;-83
2023/02/01 03:58:38;;;;;;;;;;;;;;;4.42;100.00;67262.16;5057195;28;19921;-83
2023/02/01 04:01:03;;;;;;;;;;;;;;;;;;5056467;28;19925;-84
2023/02/01 04:03:28;;;;;;;;;;;;;;;4.41;100.00;67265.75;5058237;28;19927;-84
2023/02/01 04:05:54;;;;;;;;;;;;;;;4.41;100.00;67265.75;5037948;28;19921;-83
2023/02/01 04:08:19;;;;;;;;;;;;;;;;;;5038886;28;20382;-83
2023/02/01 04:10:44;;;;;;;;;;;;;;;4.43;100.00;67268.00;5054752;28;19929;-83
2023/02/01 04:13:09;;;;;;;;;;;;;;;;;;5058885;28;19925;-84
2023/02/01 04:15:35;;;;;;;;;;;;;;;;;;5056013;28;19921;-83
2023/02/01 04:18:00;;;;;;;;;;;;;;;4.40;100.00;67264.63;5052709;28;20015;-84
2023/02/01 04:20:25;;;;;;;;;;;;;;;4.40;100.00;67259.94;5055295;28;19935;-83
2023/02/01 04:22:50;;;;;;;;;;;;;;;;;;5053659;28;19921;-83
2023/02/01 04:25:17;;;;;;;;;;;;;;;;;;5042527;28;19975;-83
2023/02/01 04:27:42;;;;;;;;;;;;;;;4.35;100.00;67253.72;5041549;28;19928;-82
2023/02/01 04:30:09;;;;;;;;;;;;;;;4.34;100.00;67257.84;5056162;28;19921;-84
2023/02/01 04:32:34;;;;;;;;;;;;;;;;;;5051583;28;20310;-83
2023/02/01 04:34:59;;;;;;;;;;;;;;;4.28;100.00;67252.19;5053550;28;19935;-83
2023/02/01 04:37:24;;;;;;;;;;;;;;;;;;5056555;28;20416;-83
2023/02/01 04:39:50;;;;;;;;;;;;;;;;;;5036375;28;19921;-84
2023/02/01 04:42:15;;;;;;;;;;;;;;;4.26;100.00;67244.69;5037367;28;20004;-83
2023/02/01 04:44:41;;;;;;;;;;;;;;;4.23;100.00;67241.31;5032953;28;19921;-83
2023/02/01 04:47:07;;;;;;;;;;;;;;;4.24;100.00;67247.69;5040808;28;19920;-83
2023/02/01 04:49:32;;;;;;;;;;;;;;;4.24;100.00;67249.75;5046136;28;19921;-84
2023/02/01 04:51:57;;;;;;;;;;;;;;;4.21;100.00;67238.47;5055344;28;19924;-82
2023/02/01 04:54:22;;;;;;;;;;;;;;;4.22;100.00;67245.44;5049121;28;19921;-83
2023/02/01 04:56:47;;;;;;;;;;;;;;;4.20;100.00;67235.28;5034663;28;19928;-83
2023/02/01 04:59:13;;;;;;;;;;;;;;;4.22;100.00;67240.16;5036297;28;19921;-83
2023/02/01 05:01:38;;;;;;;;;;;;;;;4.22;100.00;67245.44;5035635;28;19921;-84
2023/02/01 05:04:04;;;;;;;;;;;;;;;4.23;100.00;67240.72;5038362;28;19917;-83
2023/02/01 05:06:29;;;;;;;;;;;;;;;4.25;100.00;67248.25;5043521;28;20333;-84
2023/02/01 05:08:54;;;;;;;;;;;;;;;4.24;100.00;67247.13;5033646;28;19917;-83
2023/02/01 05:14:03;;;;;;;;;;;;;;;4.23;100.00;67246.56;5027041;28;19972;-83
2023/02/01 05:16:28;;;;;;;;;;;;;;;4.23;100.00;67240.72;5033459;28;19921;-83
2023/02/01 05:18:54;;;;;;;;;;;;;;;4.24;100.00;67241.84;5035238;28;19932;-83
2023/02/01 05:21:19;;;;;;;;;;;;;;;4.23;100.00;67241.31;5047680;28;19928;-83
2023/02/01 05:26:28;;;;;;;;;;;;;;;4.32;100.00;67255.59;5051664;28;20058;-83
2023/02/01 05:29:23;;;;;;;;;;;;;;;4.36;100.00;67260.09;5041775;28;19980;-83
2023/02/01 05:31:48;;;;;;;;;;;;;;;4.40;100.00;67264.63;5036949;28;19928;-84
2023/02/01 05:34:14;;;;;;;;;;;;;;;4.38;100.00;67262.94;5034870;28;19921;-84
2023/02/01 05:36:40;;;;;;;;;;;;;;;4.38;100.00;67257.66;5028987;28;20008;-85
2023/02/01 05:39:05;;;;;;;;;;;;;;;4.40;100.00;67265.19;5042985;28;19960;-85
2023/02/01 05:41:30;;;;;;;;;;;;;;;;;;5053977;28;19921;-84
2023/02/01 05:43:56;;;;;;;;;;;;;;;4.38;100.00;67257.09;5031302;28;19927;-84
2023/02/01 05:46:21;;;;;;;;;;;;;;;4.41;100.00;67265.75;5031456;28;19921;-85
2023/02/01 05:48:46;;;;;;;;;;;;;;;;;;5023117;28;19922;-84
2023/02/01 05:51:12;;;;;;;;;;;;;;;4.38;100.00;67265.56;5035047;28;19932;-85
2023/02/01 05:53:37;;;;;;;;;;;;;;;4.37;100.00;67261.22;5051413;28;19933;-85
2023/02/01 05:56:02;;;;;;;;;;;;;;;4.36;100.00;67265.38;5036004;28;20314;-85
2023/02/01 05:58:28;;;;;;;;;;;;;;;;;;5036945;28;19945;-85
2023/02/01 06:00:53;;;;;;;;;;;;;;;;;;5034243;28;20400;-85
2023/02/01 06:03:18;;;;;;;;;;;;;;;;;;5035885;28;19921;-84
2023/02/01 06:05:44;;;;;;;;;;;;;;;4.35;100.00;67259.00;5027527;28;20460;-85
2023/02/01 06:08:09;;;;;;;;;;;;;;;;;;5043743;28;20000;-86
2023/02/01 06:10:34;;;;;;;;;;;;;;;4.34;100.00;67252.56;5048396;28;19921;-86
2023/02/01 06:13:00;;;;;;;;;;;;;;;4.36;100.00;67260.09;5039273;28;19928;-84
2023/02/01 06:15:25;;;;;;;;;;;;;;;;;;5040266;28;19921;-85
2023/02/01 06:17:50;;;;;;;;;;;;;;;4.41;100.00;67260.47;5040295;28;19917;-84
2023/02/01 06:20:15;;;;;;;;;;;;;;;4.44;100.00;67271.78;5058975;28;19943;-85
2023/02/01 06:22:41;;;;;;;;;;;;;;;;;;5052639;28;20371;-85
2023/02/01 06:25:06;;;;;;;;;;;;;;;;;;5059958;28;19966;-85
2023/02/01 06:27:31;;;;;;;;;;;;;;;4.51;100.00;67277.03;5063261;28;19963;-85
2023/02/01 06:29:57;;;;;;;;;;;;;;;4.54;100.00;67275.16;5060508;28;19925;-85
2023/02/01 06:32:23;;;;;;;;;;;;;;;4.56;100.00;67276.84;5053709;28;19929;-85
2023/02/01 06:34:48;;;;;;;;;;;;;;;4.58;100.00;67284.94;5047297;28;19964;-85
2023/02/01 06:37:14;;;;;;;;;;;;;;;4.62;100.00;67288.91;5037858;28;20635;-85
2023/02/01 06:39:39;;;;;;;;;;;;;;;;;;5040967;28;20559;-85
2023/02/01 06:42:04;;;;;;;;;;;;;;;4.63;100.00;67290.59;5040328;28;20073;-85
2023/02/01 06:44:29;;;;;;;;;;;;;;;;;;5043438;28;19928;-85
2023/02/01 06:46:54;;;;;;;;;;;;;;;4.66;100.00;67296.63;5041027;28;19929;-85
2023/02/01 06:49:20;;;;;;;;;;;;;;;4.69;100.00;67292.09;5050202;28;20224;-85
2023/02/01 06:51:45;;;;;;;;;;;;;;;4.72;100.00;67300.75;5049289;28;19925;-85
2023/02/01 06:54:11;;;;;;;;;;;;;;;4.77;100.00;67305.25;5055907;28;19928;-85
2023/02/01 06:56:36;;;;;;;;;;;;;;;4.78;100.00;67306.41;5040333;28;19929;-85
2023/02/01 06:59:03;;;;;;;;;;;;;;;4.80;100.00;67308.66;5049035;28;19927;-85
2023/02/01 07:01:28;;;;;;;;;;;;;;;;;;5058731;28;19929;-85
2023/02/01 07:03:54;;;;;;;;;;;;;;;4.84;100.00;67313.19;5058780;28;19947;-85
2023/02/01 07:06:19;;;;;;;;;;;;;;;4.86;100.00;67310.72;5044979;28;19965;-86
2023/02/01 07:08:45;;;;;;;;;;;;;;;4.87;100.00;67316.56;5030674;28;20000;-86
2023/02/01 07:11:10;;;;;;;;;;;;;;;;;;5030774;28;19976;-86
2023/02/01 07:13:35;;;;;;;;;;;;;;;;;;5038838;28;19921;-86
2023/02/01 07:16:00;;;;;;;;;;;;;;;;;;5050788;28;20234;-86
2023/02/01 07:18:25;;;;;;;;;;;;;;;;;;5052310;28;19991;-85
2023/02/01 07:20:51;;;;;;;;;;;;;;;4.93;100.00;67325.97;5040069;28;19917;-86
2023/02/01 07:23:16;;;;;;;;;;;;;;;;;;5038405;28;19925;-85
2023/02/01 07:25:41;;;;;;;;;;;;;;;4.93;100.00;67318.06;5044682;28;19955;-85
2023/02/01 07:28:06;;;;;;;;;;;;;;;;;;5036521;28;19925;-85
2023/02/01 07:30:32;;;;;;;;;;;;;;;4.94;100.00;67319.19;5036776;28;20370;-85
2023/02/01 07:33:00;;;;;;;;;;;;;;;4.96;100.00;67329.91;5036656;28;20062;-85
2023/02/01 07:35:26;;;;;;;;;;;;;;;5.02;100.00;67328.22;5035035;28;19921;-85
2023/02/01 07:37:51;;;;;;;;;;;;;;;5.02;100.00;67328.22;5043830;28;19921;-86
2023/02/01 07:40:16;;;;;;;;;;;;;;;;;;5037693;28;19925;-86
2023/02/01 07:42:41;;;;;;;;;;;;;;;5.07;100.00;67333.88;5035337;28;19964;-86
2023/02/01 07:45:06;;;;;;;;;;;;;;;;;;5046306;28;19925;-85
2023/02/01 07:47:31;;;;;;;;;;;;;;;5.10;100.00;67336.69;5040628;28;19925;-85
2023/02/01 07:49:57;;;;;;;;;;;;;;;;;;5036455;28;20019;-85
2023/02/01 07:52:22;;;;;;;;;;;;;;;5.14;100.00;67338.56;5040336;28;19925;-85
2023/02/01 07:54:47;;;;;;;;;;;;;;;;;;5034440;28;20309;-85
2023/02/01 07:57:13;;;;;;;;;;;;;;;;;;5037790;28;20350;-85
2023/02/01 08:01:19;;;;;;;;;;;;;;;5.18;100.00;67346.31;5040213;28;19987;-85
2023/02/01 08:02:23;;;;;;;;;;;;;;;;;;5027953;28;20035;-85
2023/02/01 08:04:48;;;;;;;;;;;;;;;5.19;100.00;67346.88;5033009;28;20044;-85
2023/02/01 08:07:14;;;;;;;;;;;;;;;;;;5049266;28;19921;-85
2023/02/01 08:09:39;;;;;;;;;;;;;;;;;;5055901;28;19931;-85
2023/02/01 08:12:04;;;;;;;;;;;;;;;5.25;100.00;67358.91;5053066;28;19952;-85
2023/02/01 08:14:29;;;;;;;;;;;;;;;;;;5045953;28;19981;-85
2023/02/01 08:16:54;;;;;;;;;;;;;;;5.27;100.00;67360.63;5035242;28;20015;-85
2023/02/01 08:19:19;;;;;;;;;;;;;;;5.29;100.00;67357.59;5038174;28;19925;-85
2023/02/01 08:21:46;;;;;;;;;;;;;;;;;;5043611;28;19947;-85
2023/02/01 08:24:11;;;;;;;;;;;;;;;5.31;100.00;67359.84;5045085;28;20451;-85
2023/02/01 08:26:36;;;;;;;;;;;;;;;5.30;100.00;67359.28;5044644;28;19925;-85
2023/02/01 08:29:04;;;;;;;;;;;;;;;5.31;100.00;67365.13;5050240;28;20571;-84
2023/02/01 08:31:30;;;;;;;;;;;;;;;5.31;100.00;67357.78;5057658;28;19920;-86
2023/02/01 08:33:55;;;;;;;;;;;;;;;;;;5057877;28;19925;-85
2023/02/01 08:36:21;;;;;;;;;;;;;;;5.34;100.00;67369.06;5057592;28;19942;-85
2023/02/01 08:38:46;;;;;;;;;;;;;;;5.36;100.00;67365.50;5053985;28;19925;-86
2023/02/01 08:41:13;;;;;;;;;;;;;;;5.34;100.00;67369.06;5034322;28;19925;-85
2023/02/01 08:43:38;;;;;;;;;;;;;;;;;;5045215;28;19964;-86
2023/02/01 08:46:05;;;;;;;;;;;;;;;5.37;100.00;67374.53;5034214;28;20205;-85
2023/02/01 08:48:30;;;;;;;;;;;;;;;5.39;100.00;67374.16;5041073;28;19928;-85
2023/02/01 08:50:56;;;;;;;;;;;;;;;5.40;100.00;67370.56;5045267;28;19920;-84
2023/02/01 08:53:21;;;;;;;;;;;;;;;5.43;100.00;67373.41;5060071;28;19921;-84
2023/02/01 08:55:46;;;;;;;;;;;;;;;5.46;100.00;67374.16;5046574;28;19925;-84
2023/02/01 08:58:13;;;;;;;;;;;;;;;5.48;100.00;67386.97;5038763;28;19923;-84
2023/02/01 09:00:38;;;;;;;;;;;;;;;;;;5031496;28;19928;-85
2023/02/01 09:03:03;;;;;;;;;;;;;;;;;;5027851;28;19921;-86
2023/02/01 09:05:29;;;;;;;;;;;;;;;5.48;100.00;67378.50;5031341;28;19917;-86
2023/02/01 09:07:54;;;;;;;;;;;;;;;5.49;100.00;67380.19;5030060;28;19917;-86
2023/02/01 09:10:19;;;;;;;;;;;;;;;5.50;100.00;67381.31;5019181;28;19917;-85
2023/02/01 09:12:44;;;;;;;;;;;;;;;5.52;100.00;67383.56;5031754;28;19922;-85
2023/02/01 09:15:10;;;;;;;;;;;;;;;;;;5030557;28;20374;-86
2023/02/01 09:17:35;;;;;;;;;;;;;;;5.54;100.00;67385.28;5032133;28;19924;-86
2023/02/01 09:20:00;;;;;;;;;;;;;;;5.57;100.00;67389.22;5030794;28;19917;-85
2023/02/01 09:22:26;;;;;;;;;;;;;;;5.57;100.00;67394.50;5030607;28;20356;-85
2023/02/01 09:24:51;;;;;;;;;;;;;;;5.58;100.00;67389.78;5028744;28;19924;-84
2023/02/01 09:27:17;;;;;;;;;;;;;;;5.58;100.00;67389.78;5026966;28;19940;-84
2023/02/01 09:29:42;;;;;;;;;;;;;;;5.61;100.00;67393.16;5017549;28;19925;-84
2023/02/01 09:32:07;;;;;;;;;;;;;;;5.62;100.00;67399.59;5026385;28;19929;-85
2023/02/01 09:34:33;;;;;;;;;;;;;;;5.65;100.00;67402.97;5029394;28;19925;-85
2023/02/01 09:36:58;;;;;;;;;;;;;;;5.66;100.00;67396.75;5025360;28;19917;-84
2023/02/01 09:39:23;;;;;;;;;;;;;;;;;;5031114;28;20294;-85
2023/02/01 09:41:56;;;;;;;;;;;;;;;5.66;100.00;67404.66;5038877;28;19917;-86
2023/02/01 09:44:39;;;;;;;;;;;;;;;5.68;100.00;67406.38;5033003;28;19928;-86
2023/02/01 09:47:09;;;;;;;;;;;;;;;5.67;100.00;67397.31;5044145;28;19917;-85
2023/02/01 09:49:42;;;;;;;;;;;;;;;5.69;100.00;67399.00;5030380;28;19923;-85
2023/02/01 09:52:07;;;;;;;;;;;;;;;;;;5040883;28;19921;-85
2023/02/01 09:54:42;;;;;;;;;;;;;;;5.69;100.00;67407.50;5035201;28;20028;-84
2023/02/01 09:57:19;;;;;;;;;;;;;;;5.72;100.00;67410.88;5031202;28;19986;-85
2023/02/01 09:59:45;;;;;;;;;;;;;;;;;;5030415;28;20005;-85
2023/02/01 10:02:13;;;;;;;;;;;;;;;5.75;100.00;67414.28;5029429;28;20409;-84
2023/02/01 10:04:38;;;;;;;;;;;;;;;5.76;100.00;67410.13;5029212;28;20398;-86
2023/02/01 10:07:12;;;;;;;;;;;;;;;5.77;100.00;67416.53;5028085;28;19917;-84
2023/02/01 10:09:45;;;;;;;;;;;;;;;5.79;100.00;67413.53;5035016;28;20447;-86
2023/02/01 10:12:10;;;;;;;;;;;;;;;5.80;100.00;67414.09;5048243;28;19921;-85
2023/02/01 10:14:35;;;;;;;;;;;;;;;;;;5048627;28;19917;-84
2023/02/01 10:17:14;;;;;;;;;;;;;;;5.83;100.00;67422.75;5047700;28;20547;-84
2023/02/01 10:19:39;;;;;;;;;;;;;;;5.84;100.00;67424.47;5051330;28;19948;-84
2023/02/01 10:22:09;;;;;;;;;;;;;;;5.86;100.00;67428.78;5051320;28;19951;-83
2023/02/01 10:24:56;;;;;;;;;;;;;;;5.86;100.00;67426.72;5052131;28;19917;-84
2023/02/01 10:27:22;;;;;;;;;;;;;;;;;;5028435;28;20305;-85
2023/02/01 10:29:51;;;;;;;;;;;;;;;5.92;100.00;67424.44;5035070;28;19921;-84
2023/02/01 10:32:19;;;;;;;;;;;;;;;5.97;100.00;67433.31;5047641;28;19979;-84
2023/02/01 10:34:47;;;;;;;;;;;;;;;5.98;100.00;67434.44;5031460;28;19917;-84
2023/02/01 10:37:13;;;;;;;;;;;;;;;;;;5030882;28;19917;-85
2023/02/01 10:39:38;;;;;;;;;;;;;;;;;;5031582;28;19917;-84
2023/02/01 10:42:03;;;;;;;;;;;;;;;5.98;100.00;67434.44;5031044;28;20409;-84
2023/02/01 10:44:30;;;;;;;;;;;;;;;5.98;100.00;67439.16;5027076;28;19921;-84
2023/02/01 10:46:55;;;;;;;;;;;;;;;5.95;100.00;67436.34;5025868;28;20330;-84
2023/02/01 10:49:27;;;;;;;;;;;;;;;5.95;100.00;67430.50;5023553;28;19964;-83
2023/02/01 10:52:02;;;;;;;;;;;;;;;5.94;100.00;67435.22;5044079;28;19952;-84
2023/02/01 10:54:27;;;;;;;;;;;;;;;;;;5043592;28;19921;-83
2023/02/01 10:56:53;;;;;;;;;;;;;;;5.89;100.00;67432.19;5027516;28;19928;-84
2023/02/01 10:59:24;;;;;;;;;;;;;;;5.86;100.00;67420.88;5029281;28;20353;-85
2023/02/01 11:01:50;;;;;;;;;;;;;;;5.83;100.00;67418.03;5027319;28;20381;-85
2023/02/01 11:04:20;;;;;;;;;;;;;;;5.80;100.00;67419.94;5036442;28;19921;-84
2023/02/01 11:06:45;;;;;;;;;;;;;;;;;;5027995;28;20016;-83
2023/02/01 11:09:20;;;;;;;;;;;;;;;5.75;100.00;67405.78;5029772;28;20017;-84
2023/02/01 11:11:48;;;;;;;;;;;;;;;5.71;100.00;67409.19;5031785;28;19921;-83
2023/02/01 11:14:16;;;;;;;;;;;;;;;5.64;100.00;67402.41;5029103;28;19976;-83
2023/02/01 11:16:46;;;;;;;;;;;;;;;5.60;100.00;67397.88;5027549;28;19925;-84
2023/02/01 11:19:14;;;;;;;;;;;;;;;5.56;100.00;67392.81;5031118;28;19975;-84
2023/02/01 11:21:41;;;;;;;;;;;;;;;5.52;100.00;67388.28;5040361;28;19925;-84
2023/02/01 11:24:11;;;;;;;;;;;;;;;5.47;100.00;67382.63;5047486;28;20370;-83
2023/02/01 11:26:39;;;;;;;;;;;;;;;5.41;100.00;67368.53;5047064;28;20468;-84
2023/02/01 11:29:10;;;;;;;;;;;;;;;5.38;100.00;67373.59;5048121;28;19921;-85
2023/02/01 11:31:35;;;;;;;;;;;;;;;5.33;100.00;67367.41;5044247;28;20382;-84
2023/02/01 11:34:17;;;;;;;;;;;;;;;5.30;100.00;67358.72;5053907;28;19940;-84
2023/02/01 11:36:45;;;;;;;;;;;;;;;5.26;100.00;67360.03;5047977;28;20321;-84
2023/02/01 11:39:21;;;;;;;;;;;;;;;5.23;100.00;67356.09;5048739;28;19925;-83
2023/02/01 11:41:46;;;;;;;;;;;;;;;;;;5047814;28;20004;-83
2023/02/01 11:44:11;;;;;;;;;;;;;;;;;;5050849;28;20003;-84
2023/02/01 11:46:37;;;;;;;;;;;;;;;5.10;100.00;67337.25;5039798;28;19921;-83
2023/02/01 11:49:26;;;;;;;;;;;;;;;5.07;100.00;67333.88;5029186;28;19925;-83
2023/02/01 11:52:09;;;;;;;;;;;;;;;5.06;100.00;67338.00;5028188;28;19925;-84
2023/02/01 11:54:53;;;;;;;;;;;;;;;5.08;100.00;67339.72;5023892;28;19928;-84
2023/02/01 11:57:18;;;;;;;;;;;;;;;5.07;100.00;67341.78;5008013;28;19921;-84
2023/02/01 11:59:54;;;;;;;;;;;;;;;5.09;100.00;67336.13;5027664;28;19921;-84
2023/02/01 12:02:21;;;;;;;;;;;;;;;;;;5036367;28;20378;-85
2023/02/01 12:05:05;;;;;;;;;;;;;;;5.13;100.00;67345.94;5043826;28;19921;-84
2023/02/01 12:07:49;;;;;;;;;;;;;;;5.14;100.00;67341.78;5042585;28;19928;-85
2023/02/01 12:10:17;;;;;;;;;;;;;;;5.13;100.00;67337.44;5035438;28;19978;-84
2023/02/01 12:12:57;;;;;;;;;;;;;;;5.11;100.00;67337.81;5027989;28;19925;-85
2023/02/01 12:15:49;;;;;;;;;;;;;;;5.12;100.00;67344.22;5003499;28;19921;-84
2023/02/01 12:18:26;;;;;;;;;;;;;;;5.13;100.00;67338.00;5034882;28;19925;-83
2023/02/01 12:20:51;;;;;;;;;;;;;;;;;;5018424;28;19921;-84
2023/02/01 12:23:16;;;;;;;;;;;;;;;;;;5021308;28;19927;-84
2023/02/01 12:25:41;;;;;;;;;;;;;;;;;;5026510;28;19952;-83
2023/02/01 12:28:06;;;;;;;;;;;;;;;;;;5025177;28;20382;-84
2023/02/01 12:30:58;;;;;;;;;;;;;;;5.19;100.00;67352.69;5037321;28;19990;-84
2023/02/01 12:33:23;;;;;;;;;;;;;;;;;;5022519;28;20392;-84
2023/02/01 12:35:48;;;;;;;;;;;;;;;;;;5034699;28;20194;-84
2023/02/01 12:38:22;;;;;;;;;;;;;;;5.31;100.00;67357.22;5047415;28;20009;-85
2023/02/01 12:40:56;;;;;;;;;;;;;;;5.35;100.00;67364.34;5048298;28;20389;-83
2023/02/01 12:43:24;;;;;;;;;;;;;;;;;;5030774;28;19940;-83
2023/02/01 12:46:03;;;;;;;;;;;;;;;5.37;100.00;67371.91;5029841;28;19932;-83
2023/02/01 12:48:38;;;;;;;;;;;;;;;5.37;100.00;67374.53;5029876;28;20305;-83
2023/02/01 12:51:03;;;;;;;;;;;;;;;;;;5027910;28;20386;-85
2023/02/01 12:53:44;;;;;;;;;;;;;;;5.43;100.00;67373.97;5029124;28;19921;-85
2023/02/01 12:56:11;;;;;;;;;;;;;;;;;;5024312;28;19925;-84
2023/02/01 12:58:36;;;;;;;;;;;;;;;5.51;100.00;67381.88;5042997;28;19921;-84
2023/02/01 13:01:30;;;;;;;;;;;;;;;5.56;100.00;67393.38;5046905;28;20011;-84
2023/02/01 13:04:09;;;;;;;;;;;;;;;5.63;100.00;67401.28;5016958;28;19917;-85
2023/02/01 13:06:40;;;;;;;;;;;;;;;5.70;100.00;67402.78;5033920;28;20412;-84
2023/02/01 13:09:05;;;;;;;;;;;;;;;5.75;100.00;67408.44;5027650;28;19975;-85
2023/02/01 13:11:33;;;;;;;;;;;;;;;5.77;100.00;67415.97;5026673;28;19921;-84
2023/02/01 13:13:58;;;;;;;;;;;;;;;;;;5024623;28;19925;-84
2023/02/01 13:16:26;;;;;;;;;;;;;;;5.90;100.00;67433.31;5027448;28;19986;-85
2023/02/01 13:18:53;;;;;;;;;;;;;;;5.94;100.00;67429.38;5038512;28;19970;-84
2023/02/01 13:21:25;;;;;;;;;;;;;;;5.97;100.00;67430.13;5026766;28;19953;-84
2023/02/01 13:23:50;;;;;;;;;;;;;;;;;;5034136;28;19921;-85
2023/02/01 13:26:15;;;;;;;;;;;;;;;6.03;100.00;67439.53;5044928;28;19977;-84
2023/02/01 13:28:41;;;;;;;;;;;;;;;;;;5044930;28;19993;-85
2023/02/01 13:31:16;;;;;;;;;;;;;;;6.07;100.00;67449.91;5041317;28;20390;-85
2023/02/01 13:33:56;;;;;;;;;;;;;;;6.09;100.00;67446.31;5046422;28;19925;-85
2023/02/01 13:36:22;;;;;;;;;;;;;;;;;;5039147;28;19924;-85
2023/02/01 13:38:47;;;;;;;;;;;;;;;;;;5043550;28;19924;-84
2023/02/01 13:41:24;;;;;;;;;;;;;;;6.14;100.00;67456.69;5052639;28;19924;-85
2023/02/01 13:43:51;;;;;;;;;;;;;;;6.13;100.00;67450.25;5041354;28;19917;-85
2023/02/01 13:46:17;;;;;;;;;;;;;;;6.10;100.00;67448.03;5027331;28;19917;-85
2023/02/01 13:48:48;;;;;;;;;;;;;;;6.08;100.00;67451.03;5029367;28;19925;-85
2023/02/01 13:51:13;;;;;;;;;;;;;;;;;;5028142;28;19967;-85
2023/02/01 13:53:39;;;;;;;;;;;;;;;;;;5030666;28;19929;-84
2023/02/01 13:56:24;;;;;;;;;;;;;;;6.03;100.00;67440.09;5031213;28;19987;-84
2023/02/01 13:58:50;;;;;;;;;;;;;;;;;;5032950;28;19917;-84
2023/02/01 14:01:21;;;;;;;;;;;;;;;6.01;100.00;67437.28;5030655;28;20536;-84
2023/02/01 14:04:06;;;;;;;;;;;;;;;5.97;100.00;67433.31;5028481;28;19968;-84
2023/02/01 14:06:31;;;;;;;;;;;;;;;5.95;100.00;67431.06;5009977;28;19928;-85
2023/02/01 14:08:57;;;;;;;;;;;;;;;;;;5039834;28;19925;-85
2023/02/01 14:11:33;;;;;;;;;;;;;;;5.94;100.00;67429.94;5032053;28;19921;-85
2023/02/01 14:14:06;;;;;;;;;;;;;;;5.97;100.00;67433.31;5029841;28;20024;-84